| Fund (series)↕ | Registrant↕ | Ticker↕ | Latest report↕ | Net assets▲ |
|---|---|---|---|---|
| LifeX 2060 Longevity Income ETF S000087596 | Stone Ridge Trust CIK 0001559992 | — | 2026-03-31 | $3.48M |
| GraniteShares YieldBOOST TopYielders ETF S000097533 |
| — |
| 2026-03-31 |
| $3.51M |
| Horizon Kinetics Texas ETF S000100870 | Listed Funds Trust CIK 0001683471 | TEXX | 2026-03-31 | $3.52M |
| Aristotle Pacific EXclusive Series (I) S000093340 | Aristotle Fund Series Trust CIK 0001959372 | — | 2026-03-31 | $3.54M |
| Tradr 2X Long PONY Daily ETF S000095059 | INVESTMENT MANAGERS SERIES TRUST II CIK 0001587982 | PONX | 2026-03-31 | $3.55M |
| Champlain Strategic Focus Fund S000082350 | ADVISORS' INNER CIRCLE FUND II CIK 0000890540 | — | 2026-03-31 | $3.56M |
| Amplify Ethereum Max Income Covered Call ETF S000095666 | Amplify ETF Trust CIK 0001633061 | — | 2026-03-31 | $3.58M |
| WisdomTree Private Credit and Alternative Income Digital … S000094747 | WisdomTree Digital Trust CIK 0001859001 | — | 2026-03-31 | $3.59M |
| State Street(R) Financial Select Sector SPDR(R) Premium I… S000093837 | SELECT SECTOR SPDR TRUST CIK 0001064641 | XLFI | 2026-03-31 | $3.60M |
| Forester Value Fund S000004887 | FORESTER FUNDS INC CIK 0001088323 | — | 2026-03-31 | $3.61M |
| Allspring Managed Account CoreBuilder Shares Series EPI S000080418 | ALLSPRING FUNDS TRUST CIK 0001081400 | — | 2026-03-31 | $3.61M |
| Rareview 2x Bull Cryptocurrency & Precious Metals ETF S000090077 | Collaborative Investment Series Trust CIK 0001719812 | BEGS | 2026-03-31 | $3.64M |
| Applied Finance IVS International SMID ETF S000097229 | ETF Opportunities Trust CIK 0001771146 | IVSX | 2026-03-31 | $3.65M |
| Roundhill Uranium ETF S000084168 | Roundhill ETF Trust CIK 0001976517 | UX | 2026-03-31 | $3.66M |
| Virtus KAR Developing Markets Fund S000072168 | Virtus Opportunities Trust CIK 0001005020 | — | 2026-03-31 | $3.67M |
| William Blair Small-Mid Cap Value Fund S000080810 | WILLIAM BLAIR FUNDS CIK 0000822632 | — | 2026-03-31 | $3.67M |
| Tradr 2x Long ONDS Daily ETF S000100579 | INVESTMENT MANAGERS SERIES TRUST II CIK 0001587982 | — | 2026-03-31 | $3.71M |
| Novo Nordisk A/S (B Shares) ADRhedged S000058687 | Precidian ETFs Trust CIK 0001499655 | NVOH | 2026-03-31 | $3.71M |
| RiverNorth Patriot ETF S000092119 | Elevation Series Trust CIK 0001936157 | FLDZ | 2026-03-31 | $3.76M |
| High Yield Strategy Fund S000016688 | Rydex Variable Trust CIK 0001064046 | — | 2026-03-31 | $3.76M |
| STKd 100% NVDA & 100% AMD ETF S000090584 | Tidal Trust II CIK 0001924868 | — | 2026-03-31 | $3.80M |
| Inverse Russell 2000 2x Strategy Fund S000012143 | Rydex Dynamic Funds CIK 0001092720 | — | 2026-03-31 | $3.82M |
| Permanence Portfolio S000068163 | MORGAN STANLEY INSTITUTIONAL FUND INC CIK 0000836487 | — | 2026-03-31 | $3.83M |
| Tradr 2X Long SRPT Daily ETF S000096126 | INVESTMENT MANAGERS SERIES TRUST II CIK 0001587982 | — | 2026-03-31 | $3.93M |
| T-REX 2X Long RDW Daily Target ETF S000095466 | ETF Opportunities Trust CIK 0001771146 | — | 2026-03-31 | $3.97M |
| Guinness Atkinson Sustainable Energy ETF S000069963 | GUINNESS ATKINSON FUNDS CIK 0000919160 | — | 2026-03-31 | $3.98M |
| FIS Faith Income ETF S000101711 | FIS Trust CIK 0002069687 | FTHB | 2026-03-31 | $3.99M |
| PROFUND VP BANKS S000003964 | ProFunds CIK 0001039803 | — | 2026-03-31 | $4.00M |
| Northern Trust 2055 Inflation-Linked Distributing Ladder … S000093509 | Northern Funds CIK 0000916620 | TIPD | 2026-03-31 | $4.00M |
| AST Bond Portfolio 2029 S000059814 | Advanced Series Trust CIK 0000814679 | — | 2026-03-31 | $4.00M |
| Wasatch International Select Fund S000066241 | WASATCH FUNDS TRUST CIK 0000806633 | — | 2026-03-31 | $4.01M |
| GraniteShares YieldBOOST RIOT ETF S000094928 | GraniteShares ETF Trust CIK 0001689873 | RTYY | 2026-03-31 | $4.01M |
| Northern Trust 2045 Inflation-Linked Distributing Ladder … S000093508 | Northern Funds CIK 0000916620 | TIPC | 2026-03-31 | $4.01M |
| VIP Freedom 2070 Portfolio S000085434 | Variable Insurance Products Fund V CIK 0000823535 | — | 2026-03-31 | $4.03M |
| Gabelli Media Mogul Fund S000064856 | Gabelli Innovations Trust CIK 0001760567 | — | 2026-03-31 | $4.04M |
| Barrow Hanley Emerging Markets Value Fund S000084922 | Perpetual Americas Funds Trust CIK 0001830437 | — | 2026-03-31 | $4.05M |
| KraneShares MSCI One Belt One Road Index ETF S000056904 | Krane Shares Trust CIK 0001547576 | OBOR | 2026-03-31 | $4.06M |
| Internet Fund S000003718 | Rydex Variable Trust CIK 0001064046 | — | 2026-03-31 | $4.07M |
| First Trust Bloomberg R&D Leaders ETF S000084510 | First Trust Exchange-Traded Fund VI CIK 0001552740 | RND | 2026-03-31 | $4.11M |
| Roundhill Treasury Bond WeeklyPay ETF S000096159 | Roundhill ETF Trust CIK 0001976517 | TSYW | 2026-03-31 | $4.11M |
| Mississippi Tax-Free Income Series S000012001 | Dupree Mutual Funds CIK 0000311101 | — | 2026-03-31 | $4.12M |
| GraniteShares 2x Long LCID Daily ETF S000081163 | GraniteShares ETF Trust CIK 0001689873 | — | 2026-03-31 | $4.13M |
| Amplify Weight Loss Drug & Treatment ETF S000085024 | Amplify ETF Trust CIK 0001633061 | — | 2026-03-31 | $4.15M |
| Voya Solution 2070 Portfolio S000091831 | Voya Partners Inc CIK 0001039001 | — | 2026-03-31 | $4.22M |
| LifeX 2065 Inflation-Protected Longevity Income ETF S000089573 | Stone Ridge Trust CIK 0001559992 | — | 2026-03-31 | $4.23M |
| Tradr 2X Long U Daily ETF S000095061 | INVESTMENT MANAGERS SERIES TRUST II CIK 0001587982 | UNX | 2026-03-31 | $4.23M |
| Bitwise Trendwise BTC/ETH and Treasuries Rotation Strateg… S000082361 | Bitwise Funds Trust CIK 0001928561 | — | 2026-03-31 | $4.25M |
| The Laddered T-Bill ETF S000100368 | REX ETF Trust CIK 0002043954 | TLDR | 2026-03-31 | $4.25M |
| LifeX 2055 Inflation-Protected Longevity Income ETF S000087608 | Stone Ridge Trust CIK 0001559992 | — | 2026-03-31 | $4.26M |
| Wasatch International Small Cap Value Fund S000094440 | WASATCH FUNDS TRUST CIK 0000806633 | — | 2026-03-31 | $4.27M |